BCS473 LEVT-EGNX
Flight info
| Callsign | BCS473 |
|---|---|
| Flight time | 1h 36m |
| Altitude | 39000 |
| Route | BLV P87 BELEN DCT DIDIG UP87 MOKOR UN873 OLEBA DCT ROGPU DCT DIKRO UM184 HEMEL |
| Aircraft | B738/M-SDE2E3FGHIRWXY/LB1 |
Departure
| Time | 2026-05-06 14:24 |
|---|---|
| Airport | Vitoria Airport (LEVT) |
Arrival
| Time | 2026-05-06 16:00 |
|---|---|
| Airport | East Midlands Airport (EGNX) |
| Time | Latitude | Longitude | Altitude | Speed | Heading |
|---|---|---|---|---|---|
| 2026-05-06 13:38 | 42.88414 | -2.72952 | 1672 ft | 0 kts | 307° |
| 2026-05-06 14:12 | 42.88405 | -2.72936 | 1682 ft | 2 kts | 307° |
| 2026-05-06 14:12 | 42.88395 | -2.72918 | 1674 ft | 2 kts | 306° |
| 2026-05-06 14:12 | 42.88397 | -2.72901 | 1685 ft | 2 kts | 216° |
| 2026-05-06 14:13 | 42.88403 | -2.72894 | 1681 ft | 0 kts | 216° |
| 2026-05-06 14:17 | 42.88398 | -2.72899 | 1679 ft | 3 kts | 215° |
| 2026-05-06 14:17 | 42.88360 | -2.72935 | 1677 ft | 9 kts | 215° |
| 2026-05-06 14:17 | 42.88295 | -2.72999 | 1680 ft | 14 kts | 216° |
| 2026-05-06 14:18 | 42.88211 | -2.73084 | 1671 ft | 16 kts | 217° |
| 2026-05-06 14:18 | 42.88118 | -2.73178 | 1673 ft | 17 kts | 216° |
| 2026-05-06 14:18 | 42.88027 | -2.73267 | 1672 ft | 12 kts | 214° |
| 2026-05-06 14:18 | 42.87953 | -2.73337 | 1675 ft | 14 kts | 216° |
| 2026-05-06 14:19 | 42.87876 | -2.73414 | 1666 ft | 11 kts | 216° |
| 2026-05-06 14:19 | 42.87820 | -2.73428 | 1668 ft | 9 kts | 136° |
| 2026-05-06 14:19 | 42.87782 | -2.73358 | 1670 ft | 10 kts | 123° |
| 2026-05-06 14:19 | 42.87727 | -2.73310 | 1665 ft | 10 kts | 187° |
| 2026-05-06 14:20 | 42.87663 | -2.73362 | 1668 ft | 11 kts | 216° |
| 2026-05-06 14:20 | 42.87591 | -2.73432 | 1667 ft | 14 kts | 216° |
| 2026-05-06 14:20 | 42.87503 | -2.73518 | 1667 ft | 17 kts | 216° |
| 2026-05-06 14:20 | 42.87401 | -2.73620 | 1671 ft | 19 kts | 214° |
| 2026-05-06 14:21 | 42.87291 | -2.73730 | 1660 ft | 21 kts | 216° |
| 2026-05-06 14:21 | 42.87180 | -2.73841 | 1662 ft | 18 kts | 216° |
| 2026-05-06 14:21 | 42.87101 | -2.73836 | 1668 ft | 0 kts | 128° |
| 2026-05-06 14:22 | 42.87096 | -2.73826 | 1667 ft | 3 kts | 129° |
| 2026-05-06 14:22 | 42.87064 | -2.73766 | 1659 ft | 12 kts | 118° |
| 2026-05-06 14:22 | 42.87072 | -2.73637 | 1659 ft | 15 kts | 44° |
| 2026-05-06 14:23 | 42.87200 | -2.73515 | 1668 ft | 43 kts | 35° |
| 2026-05-06 14:23 | 42.87631 | -2.73091 | 1667 ft | 110 kts | 36° |
| 2026-05-06 14:23 | 42.88407 | -2.72330 | 1686 ft | 162 kts | 33° |
| 2026-05-06 14:23 | 42.89321 | -2.71382 | 2259 ft | 165 kts | 35° |
| 2026-05-06 14:24 | 42.90261 | -2.70489 | 3110 ft | 164 kts | 33° |
| 2026-05-06 14:24 | 42.91220 | -2.69606 | 3710 ft | 174 kts | 31° |
| 2026-05-06 14:24 | 42.92305 | -2.68609 | 3961 ft | 199 kts | 31° |
| 2026-05-06 14:24 | 42.93515 | -2.67494 | 4094 ft | 221 kts | 32° |
| 2026-05-06 14:25 | 42.94825 | -2.66277 | 4360 ft | 236 kts | 32° |
| 2026-05-06 14:25 | 42.96242 | -2.64962 | 4605 ft | 257 kts | 31° |
| 2026-05-06 14:25 | 42.97718 | -2.63586 | 5217 ft | 265 kts | 32° |
| 2026-05-06 14:25 | 42.99248 | -2.62152 | 5923 ft | 270 kts | 32° |
| 2026-05-06 14:26 | 43.00807 | -2.60692 | 6691 ft | 273 kts | 31° |
| 2026-05-06 14:26 | 43.02380 | -2.59218 | 7443 ft | 276 kts | 32° |
| 2026-05-06 14:26 | 43.03969 | -2.57729 | 8236 ft | 278 kts | 30° |
| 2026-05-06 14:26 | 43.05569 | -2.56232 | 9047 ft | 280 kts | 31° |
| 2026-05-06 14:27 | 43.07184 | -2.54715 | 9871 ft | 283 kts | 30° |
| 2026-05-06 14:27 | 43.08963 | -2.53620 | 10580 ft | 283 kts | 6° |
| 2026-05-06 14:27 | 43.10871 | -2.53819 | 11345 ft | 279 kts | 339° |
| 2026-05-06 14:27 | 43.12576 | -2.55062 | 12150 ft | 281 kts | 320° |
| 2026-05-06 14:28 | 43.13884 | -2.57046 | 12986 ft | 282 kts | 303° |
| 2026-05-06 14:28 | 43.14934 | -2.59317 | 13834 ft | 286 kts | 300° |
| 2026-05-06 14:28 | 43.15980 | -2.61672 | 14473 ft | 293 kts | 300° |
| 2026-05-06 14:28 | 43.17068 | -2.64130 | 14807 ft | 314 kts | 301° |
| 2026-05-06 14:29 | 43.18283 | -2.66742 | 14989 ft | 337 kts | 302° |
| 2026-05-06 14:29 | 43.19600 | -2.69528 | 15212 ft | 357 kts | 302° |
| 2026-05-06 14:29 | 43.20971 | -2.72429 | 15689 ft | 369 kts | 302° |
| 2026-05-06 14:29 | 43.22354 | -2.75354 | 16391 ft | 372 kts | 303° |
| 2026-05-06 14:30 | 43.23760 | -2.78337 | 17173 ft | 374 kts | 303° |
| 2026-05-06 14:30 | 43.25175 | -2.81346 | 17899 ft | 378 kts | 303° |
| 2026-05-06 14:30 | 43.26608 | -2.84399 | 18547 ft | 382 kts | 303° |
| 2026-05-06 14:30 | 43.28100 | -2.87437 | 19141 ft | 386 kts | 309° |
| 2026-05-06 14:31 | 43.30151 | -2.89792 | 19720 ft | 389 kts | 332° |
| 2026-05-06 14:31 | 43.32717 | -2.90975 | 20404 ft | 392 kts | 349° |
| 2026-05-06 14:31 | 43.35454 | -2.91132 | 20958 ft | 399 kts | 6° |
| 2026-05-06 14:31 | 43.38151 | -2.90376 | 21519 ft | 403 kts | 11° |
| 2026-05-06 14:32 | 43.40904 | -2.89532 | 22108 ft | 406 kts | 11° |
| 2026-05-06 14:32 | 43.43667 | -2.88687 | 22689 ft | 409 kts | 11° |
| 2026-05-06 14:32 | 43.46472 | -2.87842 | 23241 ft | 414 kts | 11° |
| 2026-05-06 14:32 | 43.49289 | -2.86999 | 23799 ft | 416 kts | 9° |
| 2026-05-06 14:33 | 43.52130 | -2.86159 | 24243 ft | 418 kts | 10° |
| 2026-05-06 14:33 | 43.54987 | -2.85317 | 24728 ft | 420 kts | 10° |
| 2026-05-06 14:33 | 43.57819 | -2.84483 | 25117 ft | 424 kts | 10° |
| 2026-05-06 14:33 | 43.60699 | -2.83640 | 25636 ft | 424 kts | 10° |
| 2026-05-06 14:34 | 43.63595 | -2.82789 | 26026 ft | 427 kts | 11° |
| 2026-05-06 14:34 | 43.66519 | -2.81928 | 26383 ft | 431 kts | 11° |
| 2026-05-06 14:34 | 43.69455 | -2.81053 | 26789 ft | 433 kts | 11° |
| 2026-05-06 14:34 | 43.72399 | -2.80117 | 27171 ft | 435 kts | 12° |
| 2026-05-06 14:35 | 43.75352 | -2.79149 | 27590 ft | 437 kts | 12° |
| 2026-05-06 14:35 | 43.78314 | -2.78176 | 27949 ft | 440 kts | 12° |
| 2026-05-06 14:35 | 43.81263 | -2.77210 | 28316 ft | 442 kts | 12° |
| 2026-05-06 14:35 | 43.84264 | -2.76230 | 28647 ft | 444 kts | 12° |
| 2026-05-06 14:36 | 43.87278 | -2.75247 | 28995 ft | 447 kts | 12° |
| 2026-05-06 14:36 | 43.90310 | -2.74258 | 29336 ft | 449 kts | 12° |
| 2026-05-06 14:36 | 43.93367 | -2.73353 | 29666 ft | 450 kts | 9° |
| 2026-05-06 14:36 | 43.96459 | -2.72617 | 30012 ft | 451 kts | 8° |
| 2026-05-06 14:37 | 43.99559 | -2.71955 | 30403 ft | 450 kts | 7° |
| 2026-05-06 14:37 | 44.02653 | -2.71317 | 30816 ft | 449 kts | 7° |
| 2026-05-06 14:37 | 44.05734 | -2.70678 | 31145 ft | 449 kts | 7° |
| 2026-05-06 14:37 | 44.08825 | -2.70025 | 31453 ft | 450 kts | 7° |
| 2026-05-06 14:38 | 44.11919 | -2.69358 | 31778 ft | 450 kts | 7° |
| 2026-05-06 14:38 | 44.14968 | -2.68691 | 32111 ft | 450 kts | 7° |
| 2026-05-06 14:38 | 44.18057 | -2.68008 | 32461 ft | 449 kts | 7° |
| 2026-05-06 14:38 | 44.21146 | -2.67321 | 32790 ft | 450 kts | 7° |
| 2026-05-06 14:39 | 44.24234 | -2.66632 | 33167 ft | 449 kts | 7° |
| 2026-05-06 14:39 | 44.27316 | -2.65944 | 33519 ft | 448 kts | 7° |
| 2026-05-06 14:39 | 44.30401 | -2.65255 | 33795 ft | 449 kts | 7° |
| 2026-05-06 14:39 | 44.33485 | -2.64565 | 34064 ft | 450 kts | 7° |
| 2026-05-06 14:40 | 44.36578 | -2.63873 | 34318 ft | 450 kts | 7° |
| 2026-05-06 14:40 | 44.39631 | -2.63190 | 34569 ft | 451 kts | 7° |
| 2026-05-06 14:40 | 44.42727 | -2.62496 | 34847 ft | 450 kts | 7° |
| 2026-05-06 14:40 | 44.45821 | -2.61802 | 35074 ft | 451 kts | 7° |
| 2026-05-06 14:41 | 44.48922 | -2.61106 | 35282 ft | 452 kts | 7° |
| 2026-05-06 14:41 | 44.52030 | -2.60407 | 35502 ft | 453 kts | 7° |
| 2026-05-06 14:41 | 44.55141 | -2.59707 | 35722 ft | 453 kts | 7° |
| 2026-05-06 14:41 | 44.58254 | -2.59006 | 35966 ft | 453 kts | 7° |
| 2026-05-06 14:42 | 44.61369 | -2.58303 | 36209 ft | 453 kts | 7° |
| 2026-05-06 14:42 | 44.64440 | -2.57610 | 36444 ft | 453 kts | 7° |
| 2026-05-06 14:42 | 44.67557 | -2.56905 | 36651 ft | 454 kts | 7° |
| 2026-05-06 14:42 | 44.70675 | -2.56200 | 36845 ft | 455 kts | 7° |
| 2026-05-06 14:43 | 44.73803 | -2.55491 | 37067 ft | 455 kts | 7° |
| 2026-05-06 14:43 | 44.76931 | -2.54782 | 37291 ft | 455 kts | 7° |
| 2026-05-06 14:43 | 44.80063 | -2.54071 | 37492 ft | 456 kts | 7° |
| 2026-05-06 14:43 | 44.83198 | -2.53358 | 37685 ft | 457 kts | 7° |
| 2026-05-06 14:44 | 44.86337 | -2.52644 | 37892 ft | 457 kts | 7° |
| 2026-05-06 14:44 | 44.89479 | -2.51928 | 38095 ft | 457 kts | 7° |
| 2026-05-06 14:44 | 44.92580 | -2.51221 | 38276 ft | 458 kts | 6° |
| 2026-05-06 14:45 | 44.98880 | -2.49782 | 38648 ft | 459 kts | 6° |
| 2026-05-06 14:45 | 45.02036 | -2.49060 | 38782 ft | 460 kts | 7° |
| 2026-05-06 14:45 | 45.05194 | -2.48337 | 38935 ft | 460 kts | 7° |
| 2026-05-06 14:46 | 45.11529 | -2.46884 | 38982 ft | 463 kts | 7° |
| 2026-05-06 14:46 | 45.17868 | -2.45425 | 38989 ft | 460 kts | 7° |
| 2026-05-06 14:47 | 45.24120 | -2.43983 | 38987 ft | 457 kts | 7° |
| 2026-05-06 14:47 | 45.30380 | -2.42537 | 38986 ft | 455 kts | 7° |
| 2026-05-06 14:48 | 45.36617 | -2.41093 | 38990 ft | 454 kts | 7° |
| 2026-05-06 14:48 | 45.42850 | -2.39648 | 38985 ft | 454 kts | 7° |
| 2026-05-06 14:49 | 45.49052 | -2.38206 | 38990 ft | 455 kts | 7° |
| 2026-05-06 14:49 | 45.55311 | -2.36748 | 38985 ft | 457 kts | 7° |
| 2026-05-06 14:50 | 45.61604 | -2.35278 | 38990 ft | 459 kts | 7° |
| 2026-05-06 14:50 | 45.67925 | -2.33798 | 38983 ft | 461 kts | 7° |
| 2026-05-06 14:51 | 45.74269 | -2.32309 | 38983 ft | 463 kts | 7° |
| 2026-05-06 14:51 | 45.80589 | -2.30823 | 38984 ft | 464 kts | 7° |
| 2026-05-06 14:52 | 45.86964 | -2.29320 | 38974 ft | 464 kts | 7° |
| 2026-05-06 14:52 | 45.93331 | -2.27815 | 38978 ft | 464 kts | 7° |
| 2026-05-06 14:53 | 45.99700 | -2.26306 | 38979 ft | 463 kts | 7° |
| 2026-05-06 14:53 | 46.06011 | -2.24807 | 38976 ft | 462 kts | 7° |
| 2026-05-06 14:54 | 46.12348 | -2.23273 | 38977 ft | 461 kts | 7° |
| 2026-05-06 14:54 | 46.18658 | -2.21730 | 38975 ft | 460 kts | 7° |
| 2026-05-06 14:55 | 46.24962 | -2.20187 | 38968 ft | 459 kts | 7° |
| 2026-05-06 14:55 | 46.31208 | -2.18657 | 38969 ft | 458 kts | 7° |
| 2026-05-06 14:56 | 46.37487 | -2.17117 | 38980 ft | 457 kts | 8° |
| 2026-05-06 14:56 | 46.43753 | -2.15576 | 38975 ft | 457 kts | 8° |
| 2026-05-06 14:57 | 46.50025 | -2.14029 | 38967 ft | 457 kts | 8° |
| 2026-05-06 14:57 | 46.56297 | -2.12480 | 38974 ft | 457 kts | 8° |
| 2026-05-06 14:58 | 46.62530 | -2.10936 | 38969 ft | 458 kts | 8° |
| 2026-05-06 14:58 | 46.68814 | -2.09376 | 38960 ft | 458 kts | 8° |
| 2026-05-06 14:59 | 46.75096 | -2.07812 | 38962 ft | 459 kts | 8° |
| 2026-05-06 14:59 | 46.81399 | -2.06240 | 38963 ft | 459 kts | 8° |
| 2026-05-06 15:00 | 46.87648 | -2.04677 | 38966 ft | 459 kts | 8° |
| 2026-05-06 15:00 | 46.93960 | -2.03094 | 38960 ft | 460 kts | 8° |
| 2026-05-06 15:01 | 47.00180 | -2.00939 | 38957 ft | 463 kts | 21° |
| 2026-05-06 15:01 | 47.05706 | -1.96093 | 38962 ft | 466 kts | 37° |
| 2026-05-06 15:02 | 47.10764 | -1.90258 | 38961 ft | 466 kts | 36° |
| 2026-05-06 15:02 | 47.16226 | -1.85205 | 38967 ft | 463 kts | 21° |
| 2026-05-06 15:03 | 47.22398 | -1.82700 | 38979 ft | 460 kts | 9° |
| 2026-05-06 15:03 | 47.28697 | -1.81000 | 38964 ft | 461 kts | 9° |
| 2026-05-06 15:04 | 47.35005 | -1.79251 | 38963 ft | 461 kts | 9° |
| 2026-05-06 15:04 | 47.41265 | -1.77464 | 38964 ft | 461 kts | 9° |
| 2026-05-06 15:05 | 47.47567 | -1.75643 | 38959 ft | 461 kts | 9° |
| 2026-05-06 15:05 | 47.53865 | -1.73817 | 38953 ft | 461 kts | 9° |
| 2026-05-06 15:06 | 47.60156 | -1.71990 | 38956 ft | 461 kts | 9° |
| 2026-05-06 15:06 | 47.66408 | -1.70171 | 38961 ft | 461 kts | 9° |
| 2026-05-06 15:07 | 47.72697 | -1.68337 | 38964 ft | 460 kts | 9° |
| 2026-05-06 15:07 | 47.78988 | -1.66499 | 38961 ft | 461 kts | 9° |
| 2026-05-06 15:08 | 47.85275 | -1.64657 | 38956 ft | 461 kts | 9° |
| 2026-05-06 15:08 | 47.91523 | -1.62821 | 38966 ft | 461 kts | 9° |
| 2026-05-06 15:09 | 47.97811 | -1.60969 | 38970 ft | 460 kts | 9° |
| 2026-05-06 15:09 | 48.04102 | -1.59112 | 38963 ft | 461 kts | 9° |
| 2026-05-06 15:10 | 48.10391 | -1.57250 | 38963 ft | 461 kts | 9° |
| 2026-05-06 15:10 | 48.16648 | -1.55394 | 38969 ft | 461 kts | 9° |
| 2026-05-06 15:11 | 48.22932 | -1.53525 | 38970 ft | 461 kts | 9° |
| 2026-05-06 15:11 | 48.29223 | -1.51649 | 38975 ft | 461 kts | 10° |
| 2026-05-06 15:12 | 48.35518 | -1.49767 | 38974 ft | 461 kts | 10° |
| 2026-05-06 15:12 | 48.41775 | -1.47892 | 38964 ft | 461 kts | 10° |
| 2026-05-06 15:13 | 48.48067 | -1.46001 | 38974 ft | 461 kts | 10° |
| 2026-05-06 15:13 | 48.54359 | -1.44106 | 38973 ft | 461 kts | 10° |
| 2026-05-06 15:14 | 48.60648 | -1.42206 | 38975 ft | 460 kts | 10° |
| 2026-05-06 15:14 | 48.66886 | -1.40318 | 38977 ft | 460 kts | 10° |
| 2026-05-06 15:15 | 48.73154 | -1.38380 | 38977 ft | 460 kts | 10° |
| 2026-05-06 15:15 | 48.79424 | -1.36401 | 38978 ft | 460 kts | 10° |
| 2026-05-06 15:16 | 48.85691 | -1.34419 | 38979 ft | 460 kts | 10° |
| 2026-05-06 15:16 | 48.91957 | -1.32437 | 38981 ft | 460 kts | 10° |
| 2026-05-06 15:17 | 48.98180 | -1.30467 | 38982 ft | 460 kts | 10° |
| 2026-05-06 15:17 | 49.04443 | -1.28479 | 38983 ft | 460 kts | 10° |
| 2026-05-06 15:18 | 49.10705 | -1.26486 | 38990 ft | 460 kts | 10° |
| 2026-05-06 15:18 | 49.16962 | -1.24489 | 38989 ft | 460 kts | 10° |
| 2026-05-06 15:19 | 49.23187 | -1.22498 | 38989 ft | 460 kts | 10° |
| 2026-05-06 15:19 | 49.29457 | -1.20487 | 38990 ft | 460 kts | 10° |
| 2026-05-06 15:20 | 49.35731 | -1.18469 | 38989 ft | 461 kts | 10° |
| 2026-05-06 15:20 | 49.42000 | -1.16447 | 38991 ft | 461 kts | 10° |
| 2026-05-06 15:21 | 49.48278 | -1.14417 | 38993 ft | 461 kts | 10° |
| 2026-05-06 15:21 | 49.54517 | -1.12395 | 38996 ft | 461 kts | 10° |
| 2026-05-06 15:22 | 49.60824 | -1.10555 | 38991 ft | 461 kts | 5° |
| 2026-05-06 15:22 | 49.67205 | -1.09757 | 39000 ft | 460 kts | 2° |
| 2026-05-06 15:23 | 49.73586 | -1.09016 | 38992 ft | 461 kts | 3° |
| 2026-05-06 15:23 | 49.79938 | -1.08133 | 38991 ft | 461 kts | 4° |
| 2026-05-06 15:24 | 49.86321 | -1.07255 | 38993 ft | 461 kts | 3° |
| 2026-05-06 15:24 | 49.92709 | -1.06393 | 38989 ft | 461 kts | 3° |
| 2026-05-06 15:25 | 49.99104 | -1.05523 | 38993 ft | 461 kts | 3° |
| 2026-05-06 15:25 | 50.05455 | -1.04643 | 38988 ft | 461 kts | 4° |
| 2026-05-06 15:26 | 50.11854 | -1.03742 | 38986 ft | 461 kts | 4° |
| 2026-05-06 15:26 | 50.18246 | -1.02841 | 38983 ft | 461 kts | 4° |
| 2026-05-06 15:27 | 50.24640 | -1.01939 | 38983 ft | 461 kts | 3° |
| 2026-05-06 15:27 | 50.31028 | -1.01037 | 38980 ft | 461 kts | 3° |
| 2026-05-06 15:28 | 50.37376 | -1.00142 | 38977 ft | 461 kts | 3° |
| 2026-05-06 15:28 | 50.43757 | -0.99251 | 38984 ft | 460 kts | 3° |
| 2026-05-06 15:29 | 50.50139 | -0.98358 | 38975 ft | 460 kts | 3° |
| 2026-05-06 15:29 | 50.56516 | -0.97462 | 38971 ft | 460 kts | 3° |
| 2026-05-06 15:30 | 50.62883 | -0.96564 | 38967 ft | 459 kts | 3° |
| 2026-05-06 15:30 | 50.69249 | -0.95663 | 38968 ft | 459 kts | 3° |
| 2026-05-06 15:31 | 50.75576 | -0.94747 | 38971 ft | 459 kts | 3° |
| 2026-05-06 15:31 | 50.81925 | -0.93732 | 38962 ft | 460 kts | 7° |
| 2026-05-06 15:32 | 50.91131 | -0.89249 | 38969 ft | 462 kts | 17° |
| 2026-05-06 15:32 | 50.97224 | -0.85974 | 38971 ft | 463 kts | 17° |
| 2026-05-06 15:33 | 51.03336 | -0.82763 | 38960 ft | 456 kts | 16° |
| 2026-05-06 15:33 | 51.06321 | -0.81206 | 38590 ft | 451 kts | 16° |
| 2026-05-06 15:33 | 51.09312 | -0.79651 | 37834 ft | 453 kts | 16° |
| 2026-05-06 15:34 | 51.12323 | -0.78085 | 37045 ft | 456 kts | 16° |
| 2026-05-06 15:34 | 51.15340 | -0.76514 | 36337 ft | 458 kts | 16° |
| 2026-05-06 15:34 | 51.18322 | -0.74957 | 35671 ft | 458 kts | 16° |
| 2026-05-06 15:34 | 51.21349 | -0.73373 | 35029 ft | 457 kts | 16° |
| 2026-05-06 15:35 | 51.24364 | -0.71793 | 34417 ft | 456 kts | 16° |
| 2026-05-06 15:35 | 51.27382 | -0.70208 | 33776 ft | 455 kts | 16° |
| 2026-05-06 15:35 | 51.30389 | -0.68627 | 32980 ft | 456 kts | 16° |
| 2026-05-06 15:35 | 51.33410 | -0.67037 | 32075 ft | 458 kts | 16° |
| 2026-05-06 15:36 | 51.36450 | -0.65435 | 31132 ft | 462 kts | 17° |
| 2026-05-06 15:36 | 51.39511 | -0.63820 | 30420 ft | 461 kts | 17° |
| 2026-05-06 15:36 | 51.42533 | -0.62221 | 29900 ft | 455 kts | 17° |
| 2026-05-06 15:36 | 51.45493 | -0.60652 | 29152 ft | 443 kts | 16° |
| 2026-05-06 15:37 | 51.48396 | -0.59111 | 28308 ft | 433 kts | 17° |
| 2026-05-06 15:37 | 51.51212 | -0.57614 | 27727 ft | 420 kts | 17° |
| 2026-05-06 15:37 | 51.53978 | -0.56144 | 27176 ft | 417 kts | 16° |
| 2026-05-06 15:37 | 51.56717 | -0.54687 | 26638 ft | 414 kts | 17° |
| 2026-05-06 15:38 | 51.59404 | -0.53257 | 26113 ft | 411 kts | 16° |
| 2026-05-06 15:38 | 51.62110 | -0.51814 | 25590 ft | 408 kts | 16° |
| 2026-05-06 15:38 | 51.64792 | -0.50381 | 25075 ft | 405 kts | 16° |
| 2026-05-06 15:38 | 51.67462 | -0.48954 | 24560 ft | 403 kts | 16° |
| 2026-05-06 15:39 | 51.70116 | -0.47532 | 24100 ft | 401 kts | 16° |
| 2026-05-06 15:39 | 51.72751 | -0.46120 | 23578 ft | 399 kts | 16° |
| 2026-05-06 15:39 | 51.75383 | -0.44707 | 22976 ft | 397 kts | 16° |
| 2026-05-06 15:39 | 51.78000 | -0.43355 | 22380 ft | 393 kts | 11° |
| 2026-05-06 15:40 | 51.80667 | -0.43115 | 22033 ft | 380 kts | 347° |
| 2026-05-06 15:40 | 51.83186 | -0.44363 | 22071 ft | 378 kts | 334° |
| 2026-05-06 15:40 | 51.85481 | -0.46337 | 21995 ft | 367 kts | 327° |
| 2026-05-06 15:40 | 51.87587 | -0.48423 | 21984 ft | 352 kts | 326° |
| 2026-05-06 15:41 | 51.89623 | -0.50482 | 21973 ft | 337 kts | 325° |
| 2026-05-06 15:41 | 51.91573 | -0.52449 | 21982 ft | 323 kts | 325° |
| 2026-05-06 15:41 | 51.93449 | -0.54325 | 21973 ft | 310 kts | 326° |
| 2026-05-06 15:41 | 51.95251 | -0.56114 | 21968 ft | 298 kts | 326° |
| 2026-05-06 15:42 | 51.97019 | -0.57864 | 21234 ft | 303 kts | 326° |
| 2026-05-06 15:42 | 51.98877 | -0.59703 | 20049 ft | 322 kts | 326° |
| 2026-05-06 15:42 | 52.00161 | -0.60972 | 19289 ft | 332 kts | 326° |
| 2026-05-06 15:42 | 52.02783 | -0.63552 | 18682 ft | 326 kts | 327° |
| 2026-05-06 15:43 | 52.04769 | -0.65504 | 18385 ft | 344 kts | 327° |
| 2026-05-06 15:43 | 52.06878 | -0.67583 | 18049 ft | 364 kts | 327° |
| 2026-05-06 15:43 | 52.09041 | -0.69713 | 17672 ft | 363 kts | 327° |
| 2026-05-06 15:43 | 52.11201 | -0.71841 | 17336 ft | 365 kts | 327° |
| 2026-05-06 15:44 | 52.13366 | -0.73977 | 17000 ft | 364 kts | 327° |
| 2026-05-06 15:44 | 52.14806 | -0.75398 | 16778 ft | 364 kts | 327° |
| 2026-05-06 15:44 | 52.16953 | -0.77520 | 16453 ft | 358 kts | 327° |
| 2026-05-06 15:44 | 52.19071 | -0.79617 | 16137 ft | 354 kts | 327° |
| 2026-05-06 15:45 | 52.21166 | -0.81692 | 15829 ft | 352 kts | 327° |
| 2026-05-06 15:45 | 52.23930 | -0.84435 | 15414 ft | 350 kts | 327° |
| 2026-05-06 15:45 | 52.26003 | -0.86493 | 15103 ft | 348 kts | 327° |
| 2026-05-06 15:45 | 52.28077 | -0.88541 | 14798 ft | 347 kts | 328° |
| 2026-05-06 15:46 | 52.29481 | -0.89897 | 14598 ft | 347 kts | 328° |
| 2026-05-06 15:46 | 52.31532 | -0.91865 | 14291 ft | 346 kts | 328° |
| 2026-05-06 15:46 | 52.33600 | -0.93844 | 13986 ft | 342 kts | 328° |
| 2026-05-06 15:46 | 52.35627 | -0.95780 | 13669 ft | 333 kts | 328° |
| 2026-05-06 15:47 | 52.37607 | -0.97668 | 13342 ft | 326 kts | 329° |
| 2026-05-06 15:47 | 52.39542 | -0.99518 | 13048 ft | 319 kts | 329° |
| 2026-05-06 15:47 | 52.41435 | -1.01344 | 12766 ft | 313 kts | 329° |
| 2026-05-06 15:47 | 52.43282 | -1.03138 | 12546 ft | 305 kts | 329° |
| 2026-05-06 15:48 | 52.45081 | -1.04893 | 12362 ft | 296 kts | 328° |
| 2026-05-06 15:48 | 52.46814 | -1.06588 | 12221 ft | 287 kts | 328° |
| 2026-05-06 15:48 | 52.48522 | -1.08259 | 12129 ft | 283 kts | 328° |
| 2026-05-06 15:48 | 52.50227 | -1.09932 | 11748 ft | 289 kts | 328° |
| 2026-05-06 15:49 | 52.51940 | -1.11619 | 11385 ft | 291 kts | 328° |
| 2026-05-06 15:49 | 52.53678 | -1.13339 | 10938 ft | 293 kts | 328° |
| 2026-05-06 15:49 | 52.55422 | -1.15070 | 10505 ft | 293 kts | 328° |
| 2026-05-06 15:49 | 52.57172 | -1.16816 | 10059 ft | 294 kts | 328° |
| 2026-05-06 15:50 | 52.58894 | -1.18543 | 9655 ft | 285 kts | 328° |
| 2026-05-06 15:50 | 52.60549 | -1.20212 | 9303 ft | 274 kts | 328° |
| 2026-05-06 15:50 | 52.62153 | -1.21836 | 8945 ft | 267 kts | 328° |
| 2026-05-06 15:50 | 52.63712 | -1.23424 | 8582 ft | 260 kts | 328° |
| 2026-05-06 15:51 | 52.65233 | -1.24977 | 8150 ft | 256 kts | 328° |
| 2026-05-06 15:51 | 52.66734 | -1.26518 | 7722 ft | 253 kts | 329° |
| 2026-05-06 15:51 | 52.68217 | -1.28052 | 7287 ft | 250 kts | 328° |
| 2026-05-06 15:51 | 52.69677 | -1.29577 | 6877 ft | 248 kts | 328° |
| 2026-05-06 15:52 | 52.71120 | -1.31094 | 6505 ft | 244 kts | 328° |
| 2026-05-06 15:52 | 52.72485 | -1.32673 | 6109 ft | 242 kts | 317° |
| 2026-05-06 15:52 | 52.73354 | -1.35014 | 5700 ft | 242 kts | 288° |
| 2026-05-06 15:52 | 52.73675 | -1.37729 | 5356 ft | 240 kts | 283° |
| 2026-05-06 15:53 | 52.73907 | -1.40430 | 4963 ft | 238 kts | 279° |
| 2026-05-06 15:53 | 52.74131 | -1.43117 | 4621 ft | 234 kts | 280° |
| 2026-05-06 15:53 | 52.74370 | -1.45768 | 4323 ft | 233 kts | 280° |
| 2026-05-06 15:53 | 52.74582 | -1.48414 | 4088 ft | 233 kts | 281° |
| 2026-05-06 15:54 | 52.74774 | -1.51070 | 4043 ft | 233 kts | 279° |
| 2026-05-06 15:54 | 52.74976 | -1.53730 | 4038 ft | 234 kts | 280° |
| 2026-05-06 15:54 | 52.75259 | -1.56352 | 4022 ft | 230 kts | 293° |
| 2026-05-06 15:54 | 52.76138 | -1.58376 | 4017 ft | 207 kts | 329° |
| 2026-05-06 15:55 | 52.77398 | -1.59071 | 4035 ft | 183 kts | 0° |
| 2026-05-06 15:55 | 52.78648 | -1.59073 | 4053 ft | 182 kts | 1° |
| 2026-05-06 15:55 | 52.79909 | -1.58972 | 4031 ft | 181 kts | 17° |
| 2026-05-06 15:55 | 52.80904 | -1.57808 | 4043 ft | 177 kts | 52° |
| 2026-05-06 15:56 | 52.81651 | -1.56203 | 4023 ft | 172 kts | 50° |
| 2026-05-06 15:56 | 52.82408 | -1.54617 | 3598 ft | 186 kts | 54° |
| 2026-05-06 15:56 | 52.82877 | -1.52626 | 3001 ft | 191 kts | 88° |
| 2026-05-06 15:56 | 52.82557 | -1.50530 | 2484 ft | 190 kts | 106° |
| 2026-05-06 15:57 | 52.82297 | -1.48471 | 2078 ft | 175 kts | 78° |
| 2026-05-06 15:57 | 52.82818 | -1.46837 | 1848 ft | 153 kts | 50° |
| 2026-05-06 15:57 | 52.83144 | -1.45337 | 1786 ft | 139 kts | 93° |
| 2026-05-06 15:57 | 52.82863 | -1.43717 | 1420 ft | 144 kts | 94° |
| 2026-05-06 15:58 | 52.82862 | -1.42167 | 1223 ft | 134 kts | 79° |
| 2026-05-06 15:58 | 52.82988 | -1.40660 | 1004 ft | 131 kts | 79° |
| 2026-05-06 15:58 | 52.82946 | -1.39173 | 826 ft | 130 kts | 92° |
| 2026-05-06 15:58 | 52.82981 | -1.37702 | 606 ft | 130 kts | 79° |
| 2026-05-06 15:59 | 52.83032 | -1.36174 | 484 ft | 136 kts | 87° |
| 2026-05-06 15:59 | 52.83068 | -1.34631 | 367 ft | 135 kts | 85° |
| 2026-05-06 15:59 | 52.83097 | -1.33132 | 307 ft | 118 kts | 87° |
| 2026-05-06 15:59 | 52.83113 | -1.32125 | 302 ft | 57 kts | 88° |
| 2026-05-06 16:00 | 52.83119 | -1.31781 | 299 ft | 17 kts | 88° |
| 2026-05-06 16:00 | 52.83124 | -1.31589 | 299 ft | 16 kts | 89° |
| 2026-05-06 16:00 | 52.83125 | -1.31398 | 296 ft | 17 kts | 98° |
| 2026-05-06 16:00 | 52.83051 | -1.31318 | 295 ft | 13 kts | 181° |
| 2026-05-06 16:01 | 52.83020 | -1.31317 | 295 ft | 0 kts | 177° |
| 2026-05-06 16:02 | 52.83019 | -1.31317 | 295 ft | 1 kts | 177° |
| 2026-05-06 16:03 | 52.83004 | -1.31317 | 295 ft | 4 kts | 184° |
| 2026-05-06 16:03 | 52.82966 | -1.31363 | 296 ft | 10 kts | 241° |
| 2026-05-06 16:03 | 52.82954 | -1.31490 | 296 ft | 13 kts | 268° |
| 2026-05-06 16:03 | 52.82951 | -1.31647 | 296 ft | 15 kts | 268° |
| 2026-05-06 16:04 | 52.82948 | -1.31827 | 298 ft | 17 kts | 268° |
| 2026-05-06 16:04 | 52.82945 | -1.32034 | 298 ft | 19 kts | 269° |
| 2026-05-06 16:04 | 52.82941 | -1.32261 | 300 ft | 21 kts | 269° |
| 2026-05-06 16:04 | 52.82937 | -1.32501 | 301 ft | 21 kts | 268° |
| 2026-05-06 16:05 | 52.82933 | -1.32734 | 302 ft | 20 kts | 269° |
| 2026-05-06 16:05 | 52.82928 | -1.32960 | 304 ft | 19 kts | 268° |
| 2026-05-06 16:05 | 52.82924 | -1.33179 | 305 ft | 19 kts | 268° |
| 2026-05-06 16:05 | 52.82920 | -1.33391 | 308 ft | 18 kts | 269° |
| 2026-05-06 16:06 | 52.82917 | -1.33596 | 310 ft | 17 kts | 268° |
| 2026-05-06 16:06 | 52.82913 | -1.33793 | 308 ft | 17 kts | 268° |
| 2026-05-06 16:06 | 52.82909 | -1.33984 | 309 ft | 16 kts | 269° |
| 2026-05-06 16:06 | 52.82906 | -1.34166 | 310 ft | 16 kts | 271° |
| 2026-05-06 16:07 | 52.82906 | -1.34340 | 311 ft | 15 kts | 269° |
| 2026-05-06 16:07 | 52.82854 | -1.34426 | 311 ft | 11 kts | 218° |
| 2026-05-06 16:07 | 52.82830 | -1.34546 | 312 ft | 11 kts | 267° |
| 2026-05-06 16:07 | 52.82830 | -1.34675 | 313 ft | 11 kts | 268° |
| 2026-05-06 16:08 | 52.82826 | -1.34801 | 314 ft | 11 kts | 267° |
| 2026-05-06 16:08 | 52.82823 | -1.34922 | 314 ft | 10 kts | 268° |
| 2026-05-06 16:08 | 52.82822 | -1.35038 | 315 ft | 10 kts | 271° |
| 2026-05-06 16:08 | 52.82822 | -1.35163 | 315 ft | 11 kts | 266° |
| 2026-05-06 16:09 | 52.82791 | -1.35269 | 315 ft | 7 kts | 191° |
| 2026-05-06 16:09 | 52.82738 | -1.35266 | 315 ft | 5 kts | 178° |
| 2026-05-06 16:09 | 52.82733 | -1.35265 | 315 ft | 0 kts | 178° |